Time;durP1;ratioP1;P1;durP2;ratioP2;P2;SDS_P1;SDS_P2;PMS_P1;PMS_P2;Temp;Humidity;BMP_temperature;BMP_pressure;BME280_temperature;BME280_humidity;BME280_pressure;Samples;Min_cycle;Max_cycle;Signal;HPM_P1;HPM_P2
2022/05/26 00:00:12;;;;;;;2.10;0.80;;;17.80;59.20;;;;;;5012078;28;20450;-45
2022/05/26 00:02:38;;;;;;;4.00;0.83;;;17.80;59.10;;;;;;5014755;28;20618;-45
2022/05/26 00:05:06;;;;;;;12.63;1.63;;;17.80;59.20;;;;;;5012178;28;20478;-45
2022/05/26 00:07:33;;;;;;;1.73;0.90;;;17.80;58.90;;;;;;5013408;28;20822;-45
2022/05/26 00:10:00;;;;;;;1.13;0.90;;;17.80;59.10;;;;;;5008882;28;20464;-45
2022/05/26 00:12:26;;;;;;;0.77;0.70;;;17.80;59.10;;;;;;5010966;28;20515;-45
2022/05/26 00:14:53;;;;;;;1.10;1.00;;;17.70;59.40;;;;;;5010278;28;20547;-45
2022/05/26 00:17:21;;;;;;;1.23;1.00;;;17.70;59.20;;;;;;5016026;28;20534;-45
2022/05/26 00:19:49;;;;;;;0.90;0.70;;;17.70;59.20;;;;;;5011451;28;20456;-45
2022/05/26 00:22:16;;;;;;;2.63;1.30;;;17.70;59.60;;;;;;5013223;28;21018;-45
2022/05/26 00:24:43;;;;;;;2.10;1.00;;;17.70;59.50;;;;;;5010619;28;20499;-45
2022/05/26 00:27:13;;;;;;;1.80;1.00;;;17.70;59.30;;;;;;5010838;28;20471;-45
2022/05/26 00:29:40;;;;;;;2.30;1.00;;;17.70;59.40;;;;;;4992043;28;20911;-45
2022/05/26 00:32:07;;;;;;;2.50;1.10;;;17.60;59.50;;;;;;5011778;28;20568;-45
2022/05/26 00:34:34;;;;;;;3.40;1.30;;;17.60;59.50;;;;;;5012618;28;20447;-45
2022/05/26 00:37:05;;;;;;;1.77;1.00;;;17.60;59.30;;;;;;4991528;28;20451;-45
2022/05/26 00:39:32;;;;;;;1.27;0.90;;;17.60;59.20;;;;;;5009906;28;20453;-45
2022/05/26 00:42:01;;;;;;;2.00;1.13;;;17.60;59.20;;;;;;5010859;28;20752;-45
2022/05/26 00:44:29;;;;;;;1.90;0.90;;;17.60;59.30;;;;;;5011385;28;20884;-45
2022/05/26 00:47:04;;;;;;;0.80;0.80;;;17.50;59.50;;;;;;5010581;28;20437;-45
2022/05/26 00:49:55;;;;;;;0.70;0.70;;;17.50;59.10;;;;;;5010422;28;20494;-45
2022/05/26 00:52:28;;;;;;;1.67;0.93;;;17.50;59.20;;;;;;5010667;28;20891;-45
2022/05/26 00:54:59;;;;;;;2.00;0.77;;;17.50;59.40;;;;;;5010789;28;20807;-45
2022/05/26 00:57:50;;;;;;;0.67;0.67;;;17.50;59.00;;;;;;5009428;28;20466;-45
2022/05/26 01:00:24;;;;;;;2.03;0.83;;;17.40;58.90;;;;;;5010833;28;20539;-45
2022/05/26 01:03:07;;;;;;;2.77;0.77;;;17.40;59.40;;;;;;5011302;28;20523;-45
2022/05/26 01:05:52;;;;;;;0.87;0.70;;;17.40;59.30;;;;;;5010797;28;20440;-45
2022/05/26 01:08:25;;;;;;;1.20;0.73;;;17.40;58.80;;;;;;5010768;28;20813;-45
2022/05/26 01:10:53;;;;;;;4.77;1.03;;;17.40;59.40;;;;;;5008710;28;20460;-45
2022/05/26 01:13:21;;;;;;;0.80;0.60;;;17.40;59.40;;;;;;5006814;28;20471;-45
2022/05/26 01:16:03;;;;;;;2.27;1.20;;;17.40;59.30;;;;;;5005253;28;20459;-45
2022/05/26 01:18:59;;;;;;;3.00;1.10;;;17.40;59.20;;;;;;5010056;28;20460;-45
2022/05/26 01:21:41;;;;;;;1.57;0.80;;;17.40;59.00;;;;;;5009314;28;20539;-45
2022/05/26 01:24:37;;;;;;;3.40;1.00;;;17.40;59.10;;;;;;5008088;28;20455;-45
2022/05/26 01:27:40;;;;;;;3.37;0.70;;;17.40;58.90;;;;;;5009403;28;21107;-45
2022/05/26 01:30:25;;;;;;;1.87;0.97;;;17.40;58.80;;;;;;5010273;28;20797;-45
2022/05/26 01:32:55;;;;;;;2.43;0.90;;;17.30;59.00;;;;;;5010917;28;20453;-45
2022/05/26 01:35:37;;;;;;;1.13;0.80;;;17.30;59.00;;;;;;5009511;28;20462;-45
2022/05/26 01:38:13;;;;;;;1.27;1.10;;;17.30;59.30;;;;;;5011717;28;20463;-45
2022/05/26 01:40:44;;;;;;;1.20;1.03;;;17.30;59.10;;;;;;5009757;28;20472;-45
2022/05/26 01:43:47;;;;;;;0.87;0.70;;;17.30;59.20;;;;;;5012138;28;20571;-45
2022/05/26 01:46:43;;;;;;;2.00;0.80;;;17.30;59.10;;;;;;4991119;28;20448;-46
2022/05/26 01:49:10;;;;;;;2.10;0.60;;;17.30;59.40;;;;;;5009000;28;20467;-45
2022/05/26 01:52:02;;;;;;;1.50;0.80;;;17.30;59.30;;;;;;5012400;28;20463;-45
2022/05/26 01:54:46;;;;;;;2.77;0.60;;;17.30;59.30;;;;;;5013216;28;20464;-45
2022/05/26 01:57:22;;;;;;;1.83;0.83;;;17.30;59.40;;;;;;5012753;28;20444;-45
2022/05/26 01:59:54;;;;;;;1.63;0.87;;;17.30;59.50;;;;;;4993430;28;20456;-46
2022/05/26 02:02:30;;;;;;;1.70;1.23;;;17.30;59.20;;;;;;5009569;28;20496;-46
2022/05/26 02:05:03;;;;;;;1.50;1.10;;;17.30;59.40;;;;;;5011486;28;20436;-45
2022/05/26 02:07:36;;;;;;;1.10;1.00;;;17.30;59.30;;;;;;5012768;28;20459;-45
2022/05/26 02:10:09;;;;;;;2.43;0.63;;;17.30;59.70;;;;;;5010840;28;20457;-45
2022/05/26 02:13:05;;;;;;;2.00;0.77;;;17.20;59.60;;;;;;5007055;28;20456;-45
2022/05/26 02:15:40;;;;;;;3.80;1.07;;;17.20;60.00;;;;;;4982575;28;20543;-45
2022/05/26 02:18:18;;;;;;;0.90;0.70;;;17.20;59.90;;;;;;5013432;28;20452;-45
2022/05/26 02:20:52;;;;;;;1.53;0.63;;;17.20;60.30;;;;;;5008198;28;20551;-45
2022/05/26 02:23:32;;;;;;;1.67;0.93;;;17.20;60.40;;;;;;5009529;28;20837;-45
2022/05/26 02:26:01;;;;;;;1.33;0.73;;;17.20;60.40;;;;;;5008848;28;20463;-45
2022/05/26 02:29:50;;;;;;;3.13;0.83;;;17.20;60.60;;;;;;5011077;28;20449;-45
2022/05/26 02:31:19;;;;;;;3.83;0.77;;;17.20;60.70;;;;;;5011210;28;20460;-44
2022/05/26 02:33:47;;;;;;;1.30;0.70;;;17.10;60.90;;;;;;5009228;28;20547;-45
2022/05/26 02:36:14;;;;;;;0.93;0.70;;;17.10;61.00;;;;;;5008972;28;20459;-45
2022/05/26 02:38:41;;;;;;;1.00;0.90;;;17.10;61.00;;;;;;5010884;28;20464;-45
2022/05/26 02:41:08;;;;;;;2.90;1.00;;;17.10;60.90;;;;;;5011603;28;20445;-47
2022/05/26 02:43:35;;;;;;;2.80;0.77;;;17.00;61.10;;;;;;4994291;28;20492;-44
2022/05/26 02:46:08;;;;;;;2.20;0.97;;;17.00;61.00;;;;;;5015624;28;20451;-45
2022/05/26 02:48:50;;;;;;;2.07;0.83;;;17.00;61.00;;;;;;4990921;28;20460;-47
2022/05/26 02:51:34;;;;;;;1.50;0.73;;;16.90;61.10;;;;;;4993451;28;20953;-48
2022/05/26 02:54:38;;;;;;;0.87;0.70;;;16.90;61.50;;;;;;5010350;28;20472;-47
2022/05/26 02:57:33;;;;;;;1.67;0.83;;;16.80;62.00;;;;;;4993311;28;20456;-47
2022/05/26 03:00:17;;;;;;;0.70;0.57;;;16.80;62.10;;;;;;5011473;28;20974;-47
2022/05/26 03:03:03;;;;;;;1.00;0.80;;;16.80;62.40;;;;;;5009374;28;21091;-47
2022/05/26 03:06:02;;;;;;;1.07;0.80;;;16.80;62.50;;;;;;5010335;28;20452;-47
2022/05/26 03:08:31;;;;;;;1.87;1.00;;;16.80;62.60;;;;;;4981523;28;20476;-47
2022/05/26 03:11:06;;;;;;;1.03;0.80;;;16.80;62.70;;;;;;5012536;28;20450;-47
2022/05/26 03:13:32;;;;;;;1.17;0.70;;;16.70;62.70;;;;;;5013591;28;20455;-48
2022/05/26 03:15:59;;;;;;;2.30;1.00;;;16.70;62.90;;;;;;5010257;28;20477;-48
2022/05/26 03:18:26;;;;;;;1.93;0.90;;;16.70;63.10;;;;;;5010860;28;20455;-48
2022/05/26 03:20:53;;;;;;;1.83;1.03;;;16.70;63.10;;;;;;4992668;28;20997;-47
2022/05/26 03:23:19;;;;;;;1.03;0.80;;;16.60;63.20;;;;;;5013017;28;20501;-47
2022/05/26 03:25:47;;;;;;;1.00;0.60;;;16.60;63.30;;;;;;5011678;28;20450;-47
2022/05/26 03:28:13;;;;;;;2.50;0.80;;;16.60;63.50;;;;;;5012434;28;20474;-48
2022/05/26 03:30:40;;;;;;;0.93;0.80;;;16.60;63.70;;;;;;4991681;28;20467;-48
2022/05/26 03:33:07;;;;;;;2.50;1.10;;;16.60;63.70;;;;;;5011545;28;20804;-47
2022/05/26 03:41:05;;;;;;;1.10;0.90;;;16.50;63.80;;;;;;5010713;28;20495;-47
2022/05/26 03:43:37;;;;;;;1.10;0.93;;;16.50;64.00;;;;;;4991050;28;20495;-47
2022/05/26 03:46:04;;;;;;;1.30;0.70;;;16.50;64.20;;;;;;5010118;28;20912;-47
2022/05/26 03:48:31;;;;;;;1.10;0.70;;;16.40;64.30;;;;;;5008529;28;20544;-47
2022/05/26 03:50:58;;;;;;;0.90;0.80;;;16.40;64.40;;;;;;5009885;28;21054;-49
2022/05/26 03:53:25;;;;;;;0.87;0.87;;;16.40;64.80;;;;;;5007528;28;20970;-47
2022/05/26 03:55:52;;;;;;;3.37;0.70;;;16.30;64.80;;;;;;5010191;28;20996;-47
2022/05/26 03:58:19;;;;;;;2.03;0.90;;;16.30;65.10;;;;;;4993666;28;20554;-47
2022/05/26 04:00:46;;;;;;;0.97;0.70;;;16.30;65.20;;;;;;5008985;28;20949;-47
2022/05/26 04:03:13;;;;;;;1.70;0.70;;;16.30;65.20;;;;;;5010983;28;20614;-47
2022/05/26 04:05:40;;;;;;;1.17;0.73;;;16.20;65.50;;;;;;5010945;28;20459;-47
2022/05/26 04:08:07;;;;;;;1.17;0.70;;;16.20;65.70;;;;;;5009926;28;20472;-47
2022/05/26 04:10:34;;;;;;;0.70;0.70;;;16.20;65.80;;;;;;5011228;28;20473;-47
2022/05/26 04:13:01;;;;;;;1.57;0.77;;;16.20;66.10;;;;;;4991089;28;20543;-47
2022/05/26 04:15:27;;;;;;;1.17;0.80;;;16.20;66.20;;;;;;5005667;28;20985;-48
2022/05/26 04:17:54;;;;;;;0.50;0.50;;;16.20;66.40;;;;;;5010191;28;20451;-47
2022/05/26 04:20:22;;;;;;;1.87;1.10;;;16.20;66.40;;;;;;4992911;28;20449;-48
2022/05/26 04:22:49;;;;;;;0.90;0.60;;;16.20;66.50;;;;;;5010890;28;20955;-48
2022/05/26 04:25:18;;;;;;;0.87;0.57;;;16.20;66.40;;;;;;5010533;28;20491;-48
2022/05/26 04:27:44;;;;;;;0.70;0.70;;;16.20;66.50;;;;;;4991606;28;20487;-48
2022/05/26 04:30:12;;;;;;;1.60;0.97;;;16.20;66.70;;;;;;4991603;28;20473;-48
2022/05/26 04:32:40;;;;;;;1.57;0.70;;;16.20;66.70;;;;;;5008228;28;21017;-48
2022/05/26 04:35:09;;;;;;;1.37;0.80;;;16.20;66.90;;;;;;5008677;28;20451;-48
2022/05/26 04:37:36;;;;;;;0.93;0.80;;;16.20;67.00;;;;;;5007898;28;20840;-48
2022/05/26 04:40:03;;;;;;;0.90;0.70;;;16.20;67.00;;;;;;5010471;28;20444;-48
2022/05/26 04:42:30;;;;;;;0.80;0.70;;;16.20;67.30;;;;;;4992503;28;20636;-48
2022/05/26 04:44:58;;;;;;;1.33;0.80;;;16.20;67.30;;;;;;4995836;28;20453;-48
2022/05/26 04:47:25;;;;;;;1.23;0.73;;;16.20;67.40;;;;;;5006053;28;20453;-48
2022/05/26 04:49:52;;;;;;;1.03;0.70;;;16.20;67.60;;;;;;5011659;28;20478;-48
2022/05/26 04:52:21;;;;;;;1.00;0.80;;;16.20;67.70;;;;;;5009722;28;20459;-48
2022/05/26 04:54:49;;;;;;;2.40;0.97;;;16.20;67.70;;;;;;4991866;28;20962;-48
2022/05/26 04:57:19;;;;;;;1.07;0.97;;;16.20;67.90;;;;;;5010359;28;20444;-48
2022/05/26 04:59:46;;;;;;;1.10;0.87;;;16.20;68.00;;;;;;5010287;28;20487;-48
2022/05/26 05:02:15;;;;;;;1.70;0.70;;;16.30;67.90;;;;;;5008163;28;20445;-48
2022/05/26 05:04:44;;;;;;;2.30;0.67;;;16.30;68.00;;;;;;5012912;28;20900;-48
2022/05/26 05:07:11;;;;;;;0.97;0.67;;;16.30;68.30;;;;;;5008342;28;20461;-48
2022/05/26 05:09:39;;;;;;;0.67;0.53;;;16.30;68.20;;;;;;5009361;28;20451;-48
2022/05/26 05:12:07;;;;;;;1.03;0.93;;;16.40;68.20;;;;;;5010189;28;20445;-48
2022/05/26 05:14:39;;;;;;;0.80;0.60;;;16.40;68.30;;;;;;4992150;28;20515;-48
2022/05/26 05:17:05;;;;;;;1.90;0.93;;;16.40;68.10;;;;;;5008649;28;20934;-48
2022/05/26 05:19:32;;;;;;;5.23;0.90;;;16.50;68.20;;;;;;4994227;28;20457;-48
2022/05/26 05:22:05;;;;;;;1.60;0.80;;;16.50;68.00;;;;;;4994322;28;20495;-48
2022/05/26 05:25:00;;;;;;;1.30;0.60;;;16.60;68.10;;;;;;4993917;28;20487;-48
2022/05/26 05:27:33;;;;;;;1.03;0.63;;;16.60;67.90;;;;;;5013631;28;20459;-48
2022/05/26 05:30:04;;;;;;;1.80;0.70;;;16.70;67.70;;;;;;5014883;28;20449;-48
2022/05/26 05:32:41;;;;;;;1.10;0.83;;;16.70;67.90;;;;;;5013421;28;20475;-48
2022/05/26 05:35:12;;;;;;;2.67;0.90;;;16.80;67.70;;;;;;5006636;28;20474;-48
2022/05/26 05:37:39;;;;;;;1.07;0.57;;;16.90;67.60;;;;;;5016256;28;21048;-48
2022/05/26 05:40:07;;;;;;;1.63;0.97;;;17.00;67.50;;;;;;5012210;28;20459;-48
2022/05/26 05:42:34;;;;;;;0.97;0.53;;;17.00;67.50;;;;;;5013004;28;20807;-48
2022/05/26 05:45:02;;;;;;;0.80;0.50;;;17.10;67.30;;;;;;5011010;28;20529;-48
2022/05/26 05:47:29;;;;;;;0.70;0.60;;;17.10;67.70;;;;;;5011484;28;20464;-48
2022/05/26 05:49:56;;;;;;;2.67;0.97;;;17.20;67.40;;;;;;5011748;28;20457;-48
2022/05/26 05:52:25;;;;;;;1.00;0.70;;;17.20;67.10;;;;;;5007857;28;20463;-48
2022/05/26 05:54:54;;;;;;;2.97;0.80;;;17.30;66.70;;;;;;5008220;28;20494;-48
2022/05/26 05:57:21;;;;;;;1.33;0.50;;;17.30;66.80;;;;;;5010936;28;20559;-48
2022/05/26 05:59:48;;;;;;;1.00;0.60;;;17.30;66.90;;;;;;5011727;28;20472;-48
2022/05/26 06:02:15;;;;;;;0.80;0.60;;;17.30;66.90;;;;;;5012398;28;20941;-48
2022/05/26 06:05:01;;;;;;;1.23;0.70;;;17.40;66.80;;;;;;5008980;28;20496;-48
2022/05/26 06:07:28;;;;;;;0.60;0.60;;;17.40;66.50;;;;;;4993093;28;20972;-48
2022/05/26 06:09:54;;;;;;;3.03;0.70;;;17.40;66.50;;;;;;5011164;28;20456;-48
2022/05/26 06:12:22;;;;;;;1.37;0.50;;;17.50;66.50;;;;;;5014471;28;20448;-48
2022/05/26 06:14:49;;;;;;;0.60;0.50;;;17.50;66.60;;;;;;5008375;28;20474;-48
2022/05/26 06:17:16;;;;;;;1.27;0.60;;;17.50;66.20;;;;;;5010267;28;20465;-48
2022/05/26 06:19:44;;;;;;;0.77;0.70;;;17.50;66.80;;;;;;5009241;28;20500;-48
2022/05/26 06:22:15;;;;;;;0.77;0.43;;;17.50;66.60;;;;;;5011247;28;20526;-48
2022/05/26 06:24:42;;;;;;;3.47;0.77;;;17.50;66.10;;;;;;5011583;28;21072;-48
2022/05/26 06:29:58;;;;;;;0.97;0.60;;;17.60;65.90;;;;;;5007468;28;20970;-48
2022/05/26 06:38:00;;;;;;;2.10;0.67;;;17.60;66.30;;;;;;5009544;28;20464;-48
2022/05/26 06:40:31;;;;;;;2.43;0.73;;;17.60;66.50;;;;;;5010197;28;20480;-48
2022/05/26 06:42:59;;;;;;;0.80;0.60;;;17.60;66.80;;;;;;4993199;28;21223;-48
2022/05/26 06:45:26;;;;;;;0.93;0.70;;;17.70;66.60;;;;;;5009378;28;20547;-47
2022/05/26 06:47:53;;;;;;;1.80;0.60;;;17.70;66.40;;;;;;5008422;28;20844;-48
2022/05/26 06:50:20;;;;;;;2.20;0.80;;;17.80;66.40;;;;;;5011506;28;20464;-48
2022/05/26 06:52:47;;;;;;;1.33;0.60;;;17.80;66.40;;;;;;5009918;28;20468;-48
2022/05/26 06:55:13;;;;;;;0.80;0.57;;;17.90;66.60;;;;;;4994852;28;20491;-48
2022/05/26 06:57:40;;;;;;;1.00;0.70;;;17.90;66.70;;;;;;5008654;28;20464;-48
2022/05/26 07:00:09;;;;;;;4.33;1.50;;;18.00;66.60;;;;;;5008235;28;20464;-48
2022/05/26 07:02:37;;;;;;;1.70;0.70;;;18.00;66.60;;;;;;5010656;28;20544;-48
2022/05/26 07:05:05;;;;;;;0.77;0.70;;;18.10;66.60;;;;;;5012089;28;20498;-48
2022/05/26 07:07:34;;;;;;;1.50;0.83;;;18.10;66.70;;;;;;5012257;28;20452;-48
2022/05/26 07:10:03;;;;;;;0.53;0.53;;;18.20;66.70;;;;;;5010688;28;20846;-47
2022/05/26 07:12:34;;;;;;;1.73;0.50;;;18.20;65.90;;;;;;4991527;28;20444;-47
2022/05/26 07:15:03;;;;;;;1.33;0.57;;;18.20;66.20;;;;;;5009499;28;20464;-47
2022/05/26 07:17:31;;;;;;;0.93;0.60;;;18.30;66.20;;;;;;5012053;28;20492;-47
2022/05/26 07:19:58;;;;;;;2.43;0.57;;;18.30;66.00;;;;;;5011526;28;20467;-47
2022/05/26 07:22:25;;;;;;;0.93;0.67;;;18.40;66.40;;;;;;5012103;28;20542;-47
2022/05/26 07:24:51;;;;;;;1.00;0.70;;;18.50;65.30;;;;;;5010435;28;20495;-48
2022/05/26 07:27:19;;;;;;;1.30;0.70;;;18.50;65.50;;;;;;4996335;28;21000;-48
2022/05/26 07:29:53;;;;;;;1.10;0.87;;;18.60;65.70;;;;;;5009804;28;20932;-48
2022/05/26 07:32:21;;;;;;;0.73;0.63;;;18.60;64.90;;;;;;5014461;28;20480;-48
2022/05/26 07:34:48;;;;;;;1.57;0.60;;;18.70;64.80;;;;;;5009494;28;20461;-48
2022/05/26 07:42:46;;;;;;;0.60;0.50;;;19.00;64.20;;;;;;5011227;28;20444;-47
2022/05/26 07:45:13;;;;;;;3.30;1.00;;;19.20;63.00;;;;;;4990518;28;20914;-47
2022/05/26 07:47:40;;;;;;;1.70;0.87;;;19.20;63.30;;;;;;5010670;28;20486;-47
2022/05/26 07:50:11;;;;;;;1.00;0.57;;;19.30;63.30;;;;;;5010943;28;20531;-47
2022/05/26 07:52:38;;;;;;;1.13;0.60;;;19.30;63.40;;;;;;5011246;28;20981;-47
2022/05/26 07:55:06;;;;;;;1.23;0.70;;;19.40;63.20;;;;;;5012141;28;20499;-47
2022/05/26 07:57:33;;;;;;;0.70;0.70;;;19.50;63.20;;;;;;5010771;28;20444;-46
2022/05/26 07:59:59;;;;;;;7.37;1.00;;;19.60;62.90;;;;;;4989816;28;20973;-44
2022/05/26 08:02:27;;;;;;;1.00;0.80;;;19.70;62.10;;;;;;5009156;28;20468;-44
2022/05/26 08:04:54;;;;;;;1.43;0.70;;;19.70;61.40;;;;;;5009470;28;20868;-44
2022/05/26 08:07:21;;;;;;;3.37;0.70;;;19.70;61.70;;;;;;5008557;28;20675;-44
2022/05/26 08:09:48;;;;;;;1.03;0.70;;;19.80;61.80;;;;;;4989248;28;20456;-45
2022/05/26 08:12:15;;;;;;;1.17;0.80;;;19.90;62.00;;;;;;5009214;28;20451;-45
2022/05/26 08:14:43;;;;;;;0.90;0.80;;;19.90;61.50;;;;;;5006123;28;20966;-45
2022/05/26 08:17:18;;;;;;;1.43;0.60;;;19.90;61.10;;;;;;5009205;28;20448;-45
2022/05/26 08:19:44;;;;;;;1.80;0.77;;;20.00;60.90;;;;;;5010127;28;20903;-45
2022/05/26 08:22:13;;;;;;;0.93;0.73;;;20.00;60.90;;;;;;5008077;28;20468;-45
2022/05/26 08:24:40;;;;;;;0.87;0.50;;;20.10;60.50;;;;;;5005615;28;20553;-45
2022/05/26 08:27:07;;;;;;;0.80;0.67;;;20.20;59.80;;;;;;4990507;28;20984;-45
2022/05/26 08:29:34;;;;;;;1.00;0.60;;;20.30;59.80;;;;;;5009354;28;20946;-45
2022/05/26 08:32:01;;;;;;;1.00;0.53;;;20.30;58.50;;;;;;5007964;28;20486;-43
2022/05/26 08:34:28;;;;;;;1.57;0.50;;;20.30;59.40;;;;;;4989385;28;20494;-45
2022/05/26 08:36:54;;;;;;;1.53;0.60;;;20.30;59.00;;;;;;5009166;28;21422;-44
2022/05/26 08:39:21;;;;;;;4.83;0.77;;;20.30;59.60;;;;;;5008510;28;20448;-44
2022/05/26 08:41:52;;;;;;;2.77;1.00;;;20.30;59.20;;;;;;5008790;28;20452;-45
2022/05/26 08:44:25;;;;;;;1.20;0.70;;;20.30;59.20;;;;;;4995057;28;20740;-44
2022/05/26 08:47:01;;;;;;;1.80;0.70;;;20.30;59.50;;;;;;5012329;28;20450;-44
2022/05/26 08:49:39;;;;;;;2.00;0.87;;;20.30;59.50;;;;;;5006624;28;20462;-44
2022/05/26 08:52:06;;;;;;;0.97;0.70;;;20.40;58.90;;;;;;5008056;28;20456;-44
2022/05/26 08:54:56;;;;;;;1.80;0.70;;;20.40;59.00;;;;;;4990267;28;20449;-45
2022/05/26 08:57:38;;;;;;;1.37;0.90;;;20.50;58.30;;;;;;5014681;28;20475;-42
2022/05/26 09:00:08;;;;;;;2.90;0.70;;;20.50;57.70;;;;;;5010601;28;20992;-42
2022/05/26 09:02:37;;;;;;;1.57;0.93;;;20.60;58.50;;;;;;5011336;28;20460;-42
2022/05/26 09:05:11;;;;;;;0.50;0.40;;;20.70;59.10;;;;;;5012856;28;20484;-42
2022/05/26 09:13:26;;;;;;;0.90;0.50;;;20.90;58.70;;;;;;5011682;28;20464;-43
2022/05/26 09:15:53;;;;;;;1.03;0.63;;;20.90;57.70;;;;;;5013827;28;20467;-43
2022/05/26 09:18:25;;;;;;;1.43;0.60;;;21.00;58.50;;;;;;5011535;28;20467;-43
2022/05/26 09:20:52;;;;;;;1.37;0.80;;;21.00;58.80;;;;;;4993037;28;20507;-43
2022/05/26 09:23:27;;;;;;;2.63;0.60;;;21.10;59.50;;;;;;4996481;28;20458;-43
2022/05/26 09:26:02;;;;;;;1.90;1.10;;;21.20;59.10;;;;;;5011349;28;20546;-42
2022/05/26 09:28:50;;;;;;;0.93;0.80;;;21.30;57.40;;;;;;5011885;28;21085;-43
2022/05/26 09:31:21;;;;;;;1.00;0.70;;;21.40;56.70;;;;;;5012267;28;20463;-44
2022/05/26 09:34:09;;;;;;;1.50;0.80;;;21.50;55.20;;;;;;5014712;28;20467;-43
2022/05/26 09:36:36;;;;;;;1.47;0.60;;;21.70;53.20;;;;;;4992797;28;20446;-43
2022/05/26 09:39:05;;;;;;;1.13;0.53;;;21.80;52.90;;;;;;5012828;28;20523;-43
2022/05/26 09:41:46;;;;;;;1.33;0.47;;;22.10;53.80;;;;;;5008616;28;20476;-43
2022/05/26 09:44:28;;;;;;;2.30;0.50;;;22.20;51.20;;;;;;5012152;28;20483;-43
2022/05/26 09:46:57;;;;;;;2.10;0.70;;;22.20;51.00;;;;;;4996567;28;20447;-43
2022/05/26 09:49:31;;;;;;;0.93;0.63;;;22.20;51.60;;;;;;5014004;28;21281;-43
2022/05/26 09:52:20;;;;;;;1.87;0.87;;;22.10;52.40;;;;;;5012044;28;20533;-43
2022/05/26 09:54:47;;;;;;;1.00;0.80;;;22.00;52.90;;;;;;4996012;28;20444;-43
2022/05/26 09:57:16;;;;;;;1.60;0.60;;;21.80;51.60;;;;;;5009933;28;20476;-43
2022/05/26 09:59:44;;;;;;;1.47;0.60;;;21.60;51.00;;;;;;5012806;28;20463;-43
2022/05/26 10:02:14;;;;;;;1.23;0.70;;;21.40;50.90;;;;;;5010059;28;20448;-43
2022/05/26 10:05:02;;;;;;;1.23;1.13;;;21.30;50.40;;;;;;4992342;28;20949;-43
2022/05/26 10:08:00;;;;;;;1.23;1.13;;;21.20;50.40;;;;;;5011075;28;20479;-43
2022/05/26 10:10:35;;;;;;;1.73;0.57;;;21.10;50.10;;;;;;5007535;28;20583;-43
2022/05/26 10:13:31;;;;;;;0.80;0.60;;;20.90;50.70;;;;;;4977557;28;20479;-43
2022/05/26 10:16:15;;;;;;;1.27;0.43;;;20.90;51.90;;;;;;5009352;28;20473;-43
2022/05/26 10:19:01;;;;;;;3.57;0.63;;;20.80;52.00;;;;;;4992540;28;20955;-43
2022/05/26 10:21:33;;;;;;;1.20;0.70;;;20.70;51.30;;;;;;4988103;28;20466;-43
2022/05/26 10:24:33;;;;;;;1.50;0.67;;;20.70;51.50;;;;;;5009533;28;20463;-43
2022/05/26 10:27:26;;;;;;;2.70;0.80;;;20.70;52.60;;;;;;5009977;28;20444;-43
2022/05/26 10:30:14;;;;;;;1.53;1.07;;;20.80;52.60;;;;;;4980548;28;20459;-43
2022/05/26 10:32:53;;;;;;;2.40;1.00;;;20.90;52.10;;;;;;5012505;28;21644;-43
2022/05/26 10:35:46;;;;;;;3.37;1.07;;;21.00;52.20;;;;;;5006791;28;20477;-43
2022/05/26 10:38:31;;;;;;;1.70;1.07;;;21.10;51.90;;;;;;5012013;28;20468;-43
2022/05/26 10:41:43;;;;;;;2.03;1.07;;;21.20;52.20;;;;;;5011391;28;20980;-43
2022/05/26 10:44:10;;;;;;;3.90;1.90;;;21.30;52.20;;;;;;4977003;28;20468;-43
2022/05/26 10:46:43;;;;;;;2.90;1.03;;;21.30;52.30;;;;;;4992592;28;20441;-43
2022/05/26 10:49:09;;;;;;;1.40;0.83;;;21.30;53.40;;;;;;5010230;28;20534;-43
2022/05/26 10:51:45;;;;;;;1.80;0.90;;;21.40;54.70;;;;;;5008538;28;20547;-43
2022/05/26 10:54:24;;;;;;;2.27;1.20;;;21.40;54.20;;;;;;5008359;28;20460;-43
2022/05/26 10:57:02;;;;;;;2.50;0.97;;;21.50;52.20;;;;;;5009775;28;20983;-43
2022/05/26 10:59:42;;;;;;;1.57;0.50;;;21.60;53.40;;;;;;5010406;28;20447;-43
2022/05/26 11:02:18;;;;;;;1.03;0.70;;;21.60;52.50;;;;;;5009159;28;20552;-43
2022/05/26 11:05:04;;;;;;;1.20;0.70;;;21.60;52.00;;;;;;5010655;28;20494;-43
2022/05/26 11:07:55;;;;;;;3.90;0.77;;;21.60;52.00;;;;;;4994737;28;20502;-43
2022/05/26 11:10:38;;;;;;;1.87;0.70;;;21.70;51.70;;;;;;5008921;28;20463;-42
2022/05/26 11:13:14;;;;;;;2.03;0.67;;;21.60;51.60;;;;;;4990945;28;20961;-42
2022/05/26 11:18:43;;;;;;;2.30;0.80;;;21.60;52.30;;;;;;5009151;28;20539;-42
2022/05/26 11:21:16;;;;;;;3.20;0.97;;;21.60;52.10;;;;;;5008908;28;20459;-43
2022/05/26 11:23:42;;;;;;;2.10;1.33;;;21.60;51.40;;;;;;5008360;28;21001;-43
2022/05/26 11:26:53;;;;;;;2.03;0.83;;;21.50;51.80;;;;;;5009220;28;20483;-43
2022/05/26 11:29:28;;;;;;;1.00;0.83;;;21.60;52.50;;;;;;5008192;28;20459;-43
2022/05/26 11:38:28;;;;;;;2.00;0.90;;;21.80;51.00;;;;;;5006881;28;20880;-43
2022/05/26 11:40:58;;;;;;;2.00;1.00;;;21.80;51.70;;;;;;5008809;28;20462;-42
2022/05/26 11:43:30;;;;;;;1.00;0.80;;;21.80;50.80;;;;;;5011296;28;20471;-42
2022/05/26 11:45:58;;;;;;;1.90;0.97;;;21.90;52.00;;;;;;5012081;28;20479;-43
2022/05/26 11:48:30;;;;;;;2.07;1.43;;;21.90;51.00;;;;;;5008262;28;20899;-43
2022/05/26 11:51:03;;;;;;;1.77;0.80;;;21.90;50.10;;;;;;5008355;28;20444;-43
2022/05/26 11:53:30;;;;;;;1.33;0.90;;;21.90;50.30;;;;;;5007576;28;20528;-43
2022/05/26 11:56:03;;;;;;;1.50;0.80;;;21.80;49.80;;;;;;5009910;28;20872;-42
2022/05/26 11:58:31;;;;;;;2.03;0.80;;;21.80;50.10;;;;;;5009285;28;20558;-42
2022/05/26 12:01:23;;;;;;;2.47;1.20;;;21.80;50.30;;;;;;5009737;28;20543;-42
2022/05/26 12:04:22;;;;;;;3.60;1.03;;;21.80;49.80;;;;;;4981748;28;20535;-43
2022/05/26 12:07:17;;;;;;;2.20;0.70;;;21.80;50.10;;;;;;4990534;28;20463;-43
2022/05/26 12:09:53;;;;;;;1.60;1.10;;;21.80;50.40;;;;;;4987019;28;20490;-45
2022/05/26 12:12:23;;;;;;;2.30;0.87;;;21.90;50.50;;;;;;4991195;28;20451;-44
2022/05/26 12:14:53;;;;;;;4.30;0.70;;;21.90;50.00;;;;;;5010338;28;20484;-43
2022/05/26 12:17:38;;;;;;;1.00;0.70;;;22.00;50.80;;;;;;5009646;28;20543;-43
2022/05/26 12:20:11;;;;;;;1.57;1.00;;;22.00;49.90;;;;;;4992879;28;20466;-43
2022/05/26 12:22:47;;;;;;;2.50;0.87;;;22.00;49.20;;;;;;5007419;28;20460;-43
2022/05/26 12:25:27;;;;;;;1.43;0.67;;;21.90;49.70;;;;;;4990465;28;20495;-43
2022/05/26 12:28:31;;;;;;;2.30;1.40;;;22.00;49.70;;;;;;4990905;28;20990;-43
2022/05/26 12:30:58;;;;;;;0.90;0.70;;;22.00;50.00;;;;;;5001774;28;21089;-43
2022/05/26 12:33:33;;;;;;;2.57;0.70;;;22.10;49.50;;;;;;5005160;28;20876;-43
2022/05/26 12:36:23;;;;;;;5.00;0.87;;;22.20;50.40;;;;;;5007764;28;20487;-43
2022/05/26 12:39:21;;;;;;;1.20;1.00;;;22.20;48.20;;;;;;5009186;28;20459;-43
2022/05/26 12:42:04;;;;;;;1.70;0.90;;;22.20;49.20;;;;;;5008813;28;20460;-43
2022/05/26 12:44:56;;;;;;;1.10;0.73;;;22.30;48.50;;;;;;4993956;28;20440;-43
2022/05/26 12:47:51;;;;;;;1.40;0.80;;;22.30;48.90;;;;;;5010795;28;20969;-43
2022/05/26 12:50:24;;;;;;;1.53;0.80;;;22.20;50.10;;;;;;5010121;28;20452;-43
2022/05/26 12:52:57;;;;;;;1.77;0.63;;;22.20;50.50;;;;;;5010005;28;20526;-43
2022/05/26 12:55:35;;;;;;;3.60;1.23;;;22.20;50.70;;;;;;5008524;28;20957;-43
2022/05/26 12:58:09;;;;;;;3.23;0.90;;;22.30;50.30;;;;;;5009559;28;20488;-43
2022/05/26 13:00:44;;;;;;;1.70;1.10;;;22.40;49.60;;;;;;5007441;28;20471;-43
2022/05/26 13:03:23;;;;;;;1.50;0.93;;;22.40;49.10;;;;;;5007920;28;20455;-43
2022/05/26 13:06:20;;;;;;;2.33;0.93;;;22.40;49.50;;;;;;4988120;28;20483;-44
2022/05/26 13:09:07;;;;;;;1.20;1.03;;;22.40;49.80;;;;;;5003753;28;20452;-43
2022/05/26 13:11:41;;;;;;;1.90;1.00;;;22.40;49.70;;;;;;5006687;28;20479;-43
2022/05/26 13:14:33;;;;;;;1.63;0.77;;;22.40;49.50;;;;;;5005786;28;20443;-43
2022/05/26 13:17:23;;;;;;;1.73;1.00;;;22.30;50.30;;;;;;5007780;28;20878;-44
2022/05/26 13:20:20;;;;;;;2.87;1.50;;;22.40;49.40;;;;;;5005685;28;20498;-43
2022/05/26 13:23:08;;;;;;;2.07;0.97;;;22.40;49.40;;;;;;4991331;28;20817;-43
2022/05/26 13:25:36;;;;;;;3.73;1.10;;;22.40;49.60;;;;;;5005939;28;20492;-43
2022/05/26 13:28:08;;;;;;;0.87;0.70;;;22.50;49.40;;;;;;5010329;28;20459;-43
2022/05/26 13:33:29;;;;;;;3.00;1.40;;;22.60;48.80;;;;;;5009544;28;20463;-43
2022/05/26 13:36:01;;;;;;;2.83;2.23;;;22.60;48.20;;;;;;4974265;28;20684;-43
2022/05/26 13:38:29;;;;;;;1.30;1.17;;;22.50;48.00;;;;;;5009054;28;20905;-43
2022/05/26 13:40:58;;;;;;;3.00;1.00;;;22.50;47.50;;;;;;5007947;28;20879;-43
2022/05/26 13:43:25;;;;;;;4.27;1.20;;;22.50;47.40;;;;;;5010292;28;20893;-43
2022/05/26 13:45:53;;;;;;;4.40;1.10;;;22.50;48.00;;;;;;5011946;28;20519;-43
2022/05/26 13:48:21;;;;;;;2.63;0.77;;;22.50;48.50;;;;;;5009841;28;20460;-43
2022/05/26 13:50:51;;;;;;;2.73;0.80;;;22.50;48.70;;;;;;5009349;28;20455;-43
2022/05/26 13:53:19;;;;;;;2.33;1.00;;;22.50;49.30;;;;;;4994318;28;20451;-43
2022/05/26 13:55:50;;;;;;;1.93;1.57;;;22.60;48.70;;;;;;4992469;28;20458;-44
2022/05/26 13:58:19;;;;;;;1.37;1.10;;;22.60;49.00;;;;;;4995903;28;20794;-43